Map

Track Data

SID SEASON NUMBER BASIN SUBBASIN NAME ISO_TIME NATURE LAT LON WMO_WIND WMO_PRES WMO_AGENCY TRACK_TYPE DIST2LAND LANDFALL IFLAG USA_AGENCY USA_ATCF_ID USA_LAT USA_LON USA_RECORD USA_STATUS USA_WIND USA_PRES USA_SSHS USA_R34_NE USA_R34_SE USA_R34_SW USA_R34_NW USA_R50_NE USA_R50_SE USA_R50_SW USA_R50_NW USA_R64_NE USA_R64_SE USA_R64_SW USA_R64_NW USA_POCI USA_ROCI USA_RMW USA_EYE TOKYO_LAT TOKYO_LON TOKYO_GRADE TOKYO_WIND TOKYO_PRES TOKYO_R50_DIR TOKYO_R50_LONG TOKYO_R50_SHORT TOKYO_R30_DIR TOKYO_R30_LONG TOKYO_R30_SHORT TOKYO_LAND CMA_LAT CMA_LON CMA_CAT CMA_WIND CMA_PRES HKO_LAT HKO_LON HKO_CAT HKO_WIND HKO_PRES NEWDELHI_LAT NEWDELHI_LON NEWDELHI_GRADE NEWDELHI_WIND NEWDELHI_PRES NEWDELHI_CI NEWDELHI_DP NEWDELHI_POCI REUNION_LAT REUNION_LON REUNION_TYPE REUNION_WIND REUNION_PRES REUNION_TNUM REUNION_CI REUNION_RMW REUNION_R34_NE REUNION_R34_SE REUNION_R34_SW REUNION_R34_NW REUNION_R50_NE REUNION_R50_SE REUNION_R50_SW REUNION_R50_NW REUNION_R64_NE REUNION_R64_SE REUNION_R64_SW REUNION_R64_NW BOM_LAT BOM_LON BOM_TYPE BOM_WIND BOM_PRES BOM_TNUM BOM_CI BOM_RMW BOM_R34_NE BOM_R34_SE BOM_R34_SW BOM_R34_NW BOM_R50_NE BOM_R50_SE BOM_R50_SW BOM_R50_NW BOM_R64_NE BOM_R64_SE BOM_R64_SW BOM_R64_NW BOM_ROCI BOM_POCI BOM_EYE BOM_POS_METHOD BOM_PRES_METHOD NADI_LAT NADI_LON NADI_CAT NADI_WIND NADI_PRES WELLINGTON_LAT WELLINGTON_LON WELLINGTON_WIND WELLINGTON_PRES DS824_LAT DS824_LON DS824_STAGE DS824_WIND DS824_PRES TD9636_LAT TD9636_LON TD9636_STAGE TD9636_WIND TD9636_PRES TD9635_LAT TD9635_LON TD9635_WIND TD9635_PRES TD9635_ROCI NEUMANN_LAT NEUMANN_LON NEUMANN_CLASS NEUMANN_WIND NEUMANN_PRES MLC_LAT MLC_LON MLC_CLASS MLC_WIND MLC_PRES USA_GUST BOM_GUST BOM_GUST_PER REUNION_GUST REUNION_GUST_PER USA_SEAHGT USA_SEARAD_NE USA_SEARAD_SE USA_SEARAD_SW USA_SEARAD_NW STORM_SPEED STORM_DIR
1978247N14344 1978 83 NA NA NOT_NAMED 1978-09-03 12:00:00 TS 14.0000 -16.0000 20 hurdat_atl main 0 0 O_____________ hurdat_atl AL121978 14.0000 -16.0000 TD 20 -1 11 266
1978247N14344 1978 83 NA NA NOT_NAMED 1978-09-03 15:00:00 TS 13.9627 -16.5500 main 0 0 P_____________ AL121978 13.9627 -16.5500 TD 20 -1 11 265
1978247N14344 1978 83 NA NA NOT_NAMED 1978-09-03 18:00:00 TS 13.9000 -17.1000 20 hurdat_atl main 32 32 O_____________ hurdat_atl AL121978 13.9000 -17.1000 TD 20 -1 11 261
1978247N14344 1978 83 NA NA NOT_NAMED 1978-09-03 21:00:00 TS 13.7999 -17.6501 main 95 95 P_____________ AL121978 13.7999 -17.6501 TD 22 -1 11 259
1978247N14344 1978 83 NA NA NOT_NAMED 1978-09-04 00:00:00 TS 13.7000 -18.2000 25 hurdat_atl main 132 132 O_____________ hurdat_atl AL121978 13.7000 -18.2000 TD 25 -1 11 262
1978247N14344 1978 83 NA NA NOT_NAMED 1978-09-04 03:00:00 TS 13.6423 -18.7424 main 178 178 P_____________ AL121978 13.6423 -18.7424 TD 25 -1 11 265
1978247N14344 1978 83 NA NA NOT_NAMED 1978-09-04 06:00:00 TS 13.6000 -19.3000 25 hurdat_atl main 229 229 O_____________ hurdat_atl AL121978 13.6000 -19.3000 TD 25 -1 11 265
1978247N14344 1978 83 NA NA NOT_NAMED 1978-09-04 09:00:00 TS 13.5422 -19.8626 main 291 291 P_____________ AL121978 13.5422 -19.8626 TD 25 -1 12 265
1978247N14344 1978 83 NA NA NOT_NAMED 1978-09-04 12:00:00 TS 13.5000 -20.5000 25 hurdat_atl main 350 350 O_____________ hurdat_atl AL121978 13.5000 -20.5000 TD 25 -1 14 268
1978247N14344 1978 83 NA NA NOT_NAMED 1978-09-04 15:00:00 TS 13.5000 -21.2699 main 431 431 P_____________ AL121978 13.5000 -21.2699 TD 27 -1 16 270
1978247N14344 1978 83 NA NA NOT_NAMED 1978-09-04 18:00:00 TS 13.5000 -22.1000 30 hurdat_atl main 514 514 O_____________ hurdat_atl AL121978 13.5000 -22.1000 TD 30 -1 16 268
1978247N14344 1978 83 NA NA NOT_NAMED 1978-09-04 21:00:00 TS 13.4572 -22.9000 main 597 597 P_____________ AL121978 13.4572 -22.9000 TD 30 -1 16 266
1978247N14344 1978 83 NA NA NOT_NAMED 1978-09-05 00:00:00 TS 13.4000 -23.7000 30 hurdat_atl main 684 684 O_____________ hurdat_atl AL121978 13.4000 -23.7000 TD 30 -1 16 266
1978247N14344 1978 83 NA NA NOT_NAMED 1978-09-05 03:00:00 TS 13.3497 -24.4925 main 771 771 P_____________ AL121978 13.3497 -24.4925 TD 30 -1 16 266
1978247N14344 1978 83 NA NA NOT_NAMED 1978-09-05 06:00:00 TS 13.3000 -25.3000 30 hurdat_atl main 856 856 O_____________ hurdat_atl AL121978 13.3000 -25.3000 TD 30 -1 17 266
1978247N14344 1978 83 NA NA NOT_NAMED 1978-09-05 09:00:00 TS 13.2277 -26.1876 main 954 954 P_____________ AL121978 13.2277 -26.1876 TD 30 -1 17 267
1978247N14344 1978 83 NA NA NOT_NAMED 1978-09-05 12:00:00 TS 13.2000 -27.0000 30 hurdat_atl main 1039 1039 O_____________ hurdat_atl AL121978 13.2000 -27.0000 TD 30 -1 14 272
1978247N14344 1978 83 NA NA NOT_NAMED 1978-09-05 15:00:00 TS 13.2770 -27.5874 main 1101 1101 P_____________ AL121978 13.2770 -27.5874 TD 30 -1 11 281
1978247N14344 1978 83 NA NA NOT_NAMED 1978-09-05 18:00:00 TS 13.4000 -28.1000 30 hurdat_atl main 1153 1153 O_____________ hurdat_atl AL121978 13.4000 -28.1000 TD 30 -1 11 282
1978247N14344 1978 83 NA NA NOT_NAMED 1978-09-05 21:00:00 TS 13.4997 -28.6626 main 1215 1215 P_____________ AL121978 13.4997 -28.6626 TD 30 -1 12 280
1978247N14344 1978 83 NA NA NOT_NAMED 1978-09-06 00:00:00 TS 13.6000 -29.3000 30 hurdat_atl main 1278 1278 O_____________ hurdat_atl AL121978 13.6000 -29.3000 TD 30 -1 14 278
1978247N14344 1978 83 NA NA NOT_NAMED 1978-09-06 03:00:00 TS 13.7000 -30.0701 main 1363 1363 P_____________ AL121978 13.7000 -30.0701 TD 30 -1 16 277
1978247N14344 1978 83 NA NA NOT_NAMED 1978-09-06 06:00:00 TS 13.8000 -30.9000 30 hurdat_atl main 1448 1448 O_____________ hurdat_atl AL121978 13.8000 -30.9000 TD 30 -1 17 276
1978247N14344 1978 83 NA NA NOT_NAMED 1978-09-06 09:00:00 TS 13.8702 -31.7602 main 1543 1543 P_____________ AL121978 13.8702 -31.7602 TD 30 -1 16 277
1978247N14344 1978 83 NA NA NOT_NAMED 1978-09-06 12:00:00 TS 14.0000 -32.5000 30 hurdat_atl main 1618 1618 O_____________ hurdat_atl AL121978 14.0000 -32.5000 TD 30 -1 12 289
1978247N14344 1978 83 NA NA NOT_NAMED 1978-09-06 15:00:00 TS 14.2695 -32.9526 main 1669 1669 P_____________ AL121978 14.2695 -32.9526 TD 30 -1 10 308
1978247N14344 1978 83 NA NA NOT_NAMED 1978-09-06 18:00:00 TS 14.6000 -33.3000 30 hurdat_atl main 1700 1700 O_____________ hurdat_atl AL121978 14.6000 -33.3000 TD 30 -1 10 310
1978247N14344 1978 83 NA NA NOT_NAMED 1978-09-06 21:00:00 TS 14.9000 -33.7426 main 1742 1742 P_____________ AL121978 14.9000 -33.7426 TD 30 -1 11 305
1978247N14344 1978 83 NA NA NOT_NAMED 1978-09-07 00:00:00 TS 15.2000 -34.2000 30 hurdat_atl main 1795 1795 O_____________ hurdat_atl AL121978 15.2000 -34.2000 TD 30 -1 11 304
1978247N14344 1978 83 NA NA NOT_NAMED 1978-09-07 03:00:00 TS 15.4924 -34.6502 main 1848 1848 P_____________ AL121978 15.4924 -34.6502 TD 30 -1 11 305
1978247N14344 1978 83 NA NA NOT_NAMED 1978-09-07 06:00:00 TS 15.8000 -35.1000 30 hurdat_atl main 1892 1892 O_____________ hurdat_atl AL121978 15.8000 -35.1000 TD 30 -1 11 307
1978247N14344 1978 83 NA NA NOT_NAMED 1978-09-07 09:00:00 TS 16.1349 -35.5427 main 1936 1936 P_____________ AL121978 16.1349 -35.5427 TD 30 -1 11 309
1978247N14344 1978 83 NA NA NOT_NAMED 1978-09-07 12:00:00 TS 16.5000 -36.0000 30 hurdat_atl main 1991 1991 O_____________ hurdat_atl AL121978 16.5000 -36.0000 TD 30 -1 12 309
1978247N14344 1978 83 NA NA NOT_NAMED 1978-09-07 15:00:00 TS 16.8849 -36.4927 main 2047 2047 P_____________ AL121978 16.8849 -36.4927 TD 30 -1 13 310
1978247N14344 1978 83 NA NA NOT_NAMED 1978-09-07 18:00:00 TS 17.3000 -37.0000 30 hurdat_atl main 2104 2104 O_____________ hurdat_atl AL121978 17.3000 -37.0000 TD 30 -1 13 312
1978247N14344 1978 83 NA NA NOT_NAMED 1978-09-07 21:00:00 TS 17.7424 -37.5002 main 2124 2124 P_____________ AL121978 17.7424 -37.5002 TD 30 -1 13 313
1978247N14344 1978 83 NA NA NOT_NAMED 1978-09-08 00:00:00 TS 18.2000 -38.0000 30 hurdat_atl main 2125 2119 O_____________ hurdat_atl AL121978 18.2000 -38.0000 TD 30 -1 13 314
1978247N14344 1978 83 NA NA NOT_NAMED 1978-09-08 03:00:00 TS 18.6499 -38.5003 main 2121 2121 P_____________ AL121978 18.6499 -38.5003 TD 30 -1 13 314
1978247N14344 1978 83 NA NA NOT_NAMED 1978-09-08 06:00:00 TS 19.1000 -39.0000 30 hurdat_atl main 2128 2121 O_____________ hurdat_atl AL121978 19.1000 -39.0000 TD 30 -1 13 312
1978247N14344 1978 83 NA NA NOT_NAMED 1978-09-08 09:00:00 TS 19.5426 -39.5375 main 2129 2125 P_____________ AL121978 19.5426 -39.5375 TD 27 -1 13 314
1978247N14344 1978 83 NA NA NOT_NAMED 1978-09-08 12:00:00 TS 20.0000 -40.0000 25 hurdat_atl main 2142 2142 O_____________ hurdat_atl AL121978 20.0000 -40.0000 TD 25 -1 12 323
1978247N14344 1978 83 NA NA NOT_NAMED 1978-09-08 15:00:00 TS 20.4922 -40.2880 main 2168 2168 P_____________ AL121978 20.4922 -40.2880 TD 25 -1 11 335
1978247N14344 1978 83 NA NA NOT_NAMED 1978-09-08 18:00:00 TS 21.0000 -40.5000 25 hurdat_atl main 2198 2198 O_____________ hurdat_atl AL121978 21.0000 -40.5000 TD 25 -1 11 337
1978247N14344 1978 83 NA NA NOT_NAMED 1978-09-08 21:00:00 TS 21.5000 -40.7502 main 2224 2224 P_____________ AL121978 21.5000 -40.7502 TD 25 -1 11 335
1978247N14344 1978 83 NA NA NOT_NAMED 1978-09-09 00:00:00 TS 22.0000 -41.0000 25 hurdat_atl main 2257 2257 O_____________ hurdat_atl AL121978 22.0000 -41.0000 TD 25 -1 11 335
1978247N14344 1978 83 NA NA NOT_NAMED 1978-09-09 03:00:00 TS 22.5000 -41.2502 main 2286 2286 P_____________ AL121978 22.5000 -41.2502 TD 25 -1 11 335
1978247N14344 1978 83 NA NA NOT_NAMED 1978-09-09 06:00:00 TS 23.0000 -41.5000 25 hurdat_atl main 2321 2321 O_____________ hurdat_atl AL121978 23.0000 -41.5000 TD 25 -1 11 334
1978247N14344 1978 83 NA NA NOT_NAMED 1978-09-09 09:00:00 TS 23.4926 -41.7873 main 2352 2352 P_____________ AL121978 23.4926 -41.7873 TD 25 -1 11 335
1978247N14344 1978 83 NA NA NOT_NAMED 1978-09-09 12:00:00 TS 24.0000 -42.0000 25 hurdat_atl main 2390 2390 O_____________ hurdat_atl AL121978 24.0000 -42.0000 TD 25 -1 11 348
1978247N14344 1978 83 NA NA NOT_NAMED 1978-09-09 15:00:00 TS 24.5424 -42.0379 main 2439 2439 P_____________ AL121978 24.5424 -42.0379 TD 25 -1 11 0
1978247N14344 1978 83 NA NA NOT_NAMED 1978-09-09 18:00:00 TS 25.1000 -42.0000 25 hurdat_atl main 2497 2497 O_____________ hurdat_atl AL121978 25.1000 -42.0000 TD 25 -1 11 2
1978247N14344 1978 83 NA NA NOT_NAMED 1978-09-09 21:00:00 TS 25.6500 -42.0000 main 2506 2476 P_____________ AL121978 25.6500 -42.0000 TD 25 -1 11 0
1978247N14344 1978 83 NA NA NOT_NAMED 1978-09-10 00:00:00 TS 26.2000 -42.0000 25 hurdat_atl main 2476 2424 O_____________ hurdat_atl AL121978 26.2000 -42.0000 TD 25 -1 11 0
1978247N14344 1978 83 NA NA NOT_NAMED 1978-09-10 03:00:00 TS 26.7425 -42.0000 main 2424 2362 P_____________ AL121978 26.7425 -42.0000 TD 25 -1 11 0
1978247N14344 1978 83 NA NA NOT_NAMED 1978-09-10 06:00:00 TS 27.3000 -42.0000 25 hurdat_atl main 2362 2296 O_____________ hurdat_atl AL121978 27.3000 -42.0000 TD 25 -1 11 358
1978247N14344 1978 83 NA NA NOT_NAMED 1978-09-10 09:00:00 TS 27.8849 -42.0515 main 2296 2238 P_____________ AL121978 27.8849 -42.0515 TD 22 -1 12 1
1978247N14344 1978 83 NA NA NOT_NAMED 1978-09-10 12:00:00 TS 28.5000 -42.0000 20 hurdat_atl main 2238 2184 O_____________ hurdat_atl AL121978 28.5000 -42.0000 TD 20 -1 13 13
1978247N14344 1978 83 NA NA NOT_NAMED 1978-09-10 15:00:00 TS 29.1501 -41.7105 main 2177 2133 P_____________ AL121978 29.1501 -41.7105 TD 20 -1 14 25
1978247N14344 1978 83 NA NA NOT_NAMED 1978-09-10 18:00:00 TS 29.8000 -41.3000 20 hurdat_atl main 2133 2090 O_____________ hurdat_atl AL121978 29.8000 -41.3000 TD 20 -1 14 29
1978247N14344 1978 83 NA NA NOT_NAMED 1978-09-10 21:00:00 TS 30.3999 -40.9070 main 2090 2048 P_____________ AL121978 30.3999 -40.9070 TD 20 -1 14 30
1978247N14344 1978 83 NA NA NOT_NAMED 1978-09-11 00:00:00 TS 31.0000 -40.5000 20 hurdat_atl main 2048 2033 O_____________ hurdat_atl AL121978 31.0000 -40.5000 TD 20 -1 12 36
1978247N14344 1978 83 NA NA NOT_NAMED 1978-09-11 03:00:00 TS 31.3507 -40.0884 main 2027 1970 P_____________ AL121978 31.3507 -40.0884 TD 20 -1 15 28
1978247N14344 1978 83 NA NA NOT_NAMED 1978-09-11 06:00:00 TS 32.3000 -39.7000 20 hurdat_atl main 1960 1782 O_____________ hurdat_atl AL121978 32.3000 -39.7000 TD 20 -1 32 11
1978247N14344 1978 83 NA NA NOT_NAMED 1978-09-11 09:00:00 TS 34.5126 -39.3474 main 1778 1557 P_____________ AL121978 34.5126 -39.3474 TD 20 -1 52 6
1978247N14344 1978 83 NA NA NOT_NAMED 1978-09-11 12:00:00 TS 37.5000 -39.0000 20 hurdat_atl main 1541 O_____________ hurdat_atl AL121978 37.5000 -39.0000 TD 20 -1 60 5

About IBTrACS Database

This database is a web-friendly format of International Best Track Archive for Climate Stewardship (IBTrACS), a global best track data archive curated by NOAA dating back to 1842.

Updated: 2021-10-08